Allen, TX

1:41 PM CDT on September 26, 2016 (GMT -0500)
Thompson Springs | | Change Station

Elev 400 ft 33.12 °N, 96.58 °W | Updated 3 seconds ago

Overcast
Overcast
64.7 °F
Feels Like 64.7 °F
N
8.0
Wind Variable Wind from NE
Gusts 8.0 mph

Today
High -- | Low -- °F
--% Chance of Precip.
Yesterday
High -- | Low -- °F
Precip. -- in
Pressure 30.19 in
Visibility 10.0 miles
Clouds Overcast 3900 ft
Dew Point 60.4 °F
Humidity 86%
Rainfall 1.15 in
Snow Depth Not available.
7:17 AM 7:16 PM
Waning Crescent, 17% visible
METAR KTKI 261753Z 01011G21KT 10SM OVC039 18/15 A3019 RMK AO2 RAE29 SLP224 P0000 60007 T01780150 10189 20172 51006
Pressure 30.19 in
Visibility 10.0 miles
Clouds Overcast 3900 ft
Dew Point 60.4 °F
Humidity 86%
Rainfall 1.15 in
Snow Depth Not available.
7:17 AM 7:16 PM
Waning Crescent, 17% visible
METAR KTKI 261753Z 01011G21KT 10SM OVC039 18/15 A3019 RMK AO2 RAE29 SLP224 P0000 60007 T01780150 10189 20172 51006

10-Day Weather Forecast

Almanac

Astronomy

Sep. 26, 2016 Rise Set
Actual Time
Civil Twilight
Nautical Twilight
Astronomical Twilight
Moon
Length of Visible Light
Length of Day
Tomorrow will be .
, % of the Moon is Illuminated

Today's Extremes

State Highs State Lows

Community

WunderPhotos

Upload Photos

1,941,951 photos uploaded!

WunderBlog® & News

Nearby

Air Quality

  Air Quality AQ Index Pollutant
Not available.

Snow Depth

Station Depth Elevation

Earthquake Activity

City Distance Mag. Time & Date
Minimum magnitude displayed is 2.5.

Coastal Water Temperatures

Place Temperature

Stations

Nearby Weather Stations

Station Location Temp. Windchill Dew Point Humidity Wind Precip. Elev Updated Type
                   

Watches & Warnings

There are currently no watches in effect.